sensor_id;sensor_type;location;lat;lon;timestamp;temperature;humidity
23507;DHT22;11930;53.076;18.250;2022-09-01T00:00:48;9.40;99.90
23507;DHT22;11930;53.076;18.250;2022-09-01T00:03:19;9.30;99.90
23507;DHT22;11930;53.076;18.250;2022-09-01T00:05:47;9.20;99.90
23507;DHT22;11930;53.076;18.250;2022-09-01T00:08:21;9.20;99.90
23507;DHT22;11930;53.076;18.250;2022-09-01T00:10:48;9.10;99.90
23507;DHT22;11930;53.076;18.250;2022-09-01T00:13:15;9.10;99.90
23507;DHT22;11930;53.076;18.250;2022-09-01T00:15:41;9.10;99.90
23507;DHT22;11930;53.076;18.250;2022-09-01T00:18:08;9.10;99.90
23507;DHT22;11930;53.076;18.250;2022-09-01T00:20:34;9.10;99.90
23507;DHT22;11930;53.076;18.250;2022-09-01T00:23:00;9.00;99.90
23507;DHT22;11930;53.076;18.250;2022-09-01T00:25:27;9.00;99.90
23507;DHT22;11930;53.076;18.250;2022-09-01T00:27:54;8.90;99.90
23507;DHT22;11930;53.076;18.250;2022-09-01T00:30:24;8.90;99.90
23507;DHT22;11930;53.076;18.250;2022-09-01T00:32:50;8.80;99.90
23507;DHT22;11930;53.076;18.250;2022-09-01T00:35:18;8.80;99.90
23507;DHT22;11930;53.076;18.250;2022-09-01T00:37:44;8.80;99.90
23507;DHT22;11930;53.076;18.250;2022-09-01T00:40:12;8.80;99.90
23507;DHT22;11930;53.076;18.250;2022-09-01T00:42:39;8.70;99.90
23507;DHT22;11930;53.076;18.250;2022-09-01T00:45:07;8.70;99.90
23507;DHT22;11930;53.076;18.250;2022-09-01T00:47:34;8.70;99.90
23507;DHT22;11930;53.076;18.250;2022-09-01T00:50:02;8.60;99.90
23507;DHT22;11930;53.076;18.250;2022-09-01T00:52:33;8.70;99.90
23507;DHT22;11930;53.076;18.250;2022-09-01T00:55:09;8.60;99.90
23507;DHT22;11930;53.076;18.250;2022-09-01T00:57:36;8.50;99.90
23507;DHT22;11930;53.076;18.250;2022-09-01T01:00:13;8.50;99.90
23507;DHT22;11930;53.076;18.250;2022-09-01T01:02:40;8.50;99.90
23507;DHT22;11930;53.076;18.250;2022-09-01T01:05:08;8.50;99.90
23507;DHT22;11930;53.076;18.250;2022-09-01T01:07:34;8.50;99.90
23507;DHT22;11930;53.076;18.250;2022-09-01T01:10:05;8.40;99.90
23507;DHT22;11930;53.076;18.250;2022-09-01T01:12:32;8.40;99.90
23507;DHT22;11930;53.076;18.250;2022-09-01T01:15:00;8.40;99.90
23507;DHT22;11930;53.076;18.250;2022-09-01T01:17:29;8.40;99.90
23507;DHT22;11930;53.076;18.250;2022-09-01T01:19:56;8.40;99.90
23507;DHT22;11930;53.076;18.250;2022-09-01T01:28:16;8.30;99.90
23507;DHT22;11930;53.076;18.250;2022-09-01T01:30:48;8.20;99.90
23507;DHT22;11930;53.076;18.250;2022-09-01T01:33:26;8.20;99.90
23507;DHT22;11930;53.076;18.250;2022-09-01T01:35:53;8.20;99.90
23507;DHT22;11930;53.076;18.250;2022-09-01T01:38:24;8.10;99.90
23507;DHT22;11930;53.076;18.250;2022-09-01T01:40:53;8.10;99.90
23507;DHT22;11930;53.076;18.250;2022-09-01T01:43:22;8.10;99.90
23507;DHT22;11930;53.076;18.250;2022-09-01T01:45:54;8.10;99.90
23507;DHT22;11930;53.076;18.250;2022-09-01T01:48:25;8.10;99.90
23507;DHT22;11930;53.076;18.250;2022-09-01T01:50:54;8.10;99.90
23507;DHT22;11930;53.076;18.250;2022-09-01T01:53:20;8.10;99.90
23507;DHT22;11930;53.076;18.250;2022-09-01T01:55:47;8.10;99.90
23507;DHT22;11930;53.076;18.250;2022-09-01T01:58:16;8.00;99.90
23507;DHT22;11930;53.076;18.250;2022-09-01T02:00:46;8.00;99.90
23507;DHT22;11930;53.076;18.250;2022-09-01T02:03:14;7.90;99.90
23507;DHT22;11930;53.076;18.250;2022-09-01T02:05:47;7.90;99.90
23507;DHT22;11930;53.076;18.250;2022-09-01T02:08:14;7.90;99.90
23507;DHT22;11930;53.076;18.250;2022-09-01T02:10:51;7.80;99.90
23507;DHT22;11930;53.076;18.250;2022-09-01T02:13:22;7.90;99.90
23507;DHT22;11930;53.076;18.250;2022-09-01T02:16:03;7.80;99.90
23507;DHT22;11930;53.076;18.250;2022-09-01T02:18:36;7.80;99.90
23507;DHT22;11930;53.076;18.250;2022-09-01T02:21:05;7.80;99.90
23507;DHT22;11930;53.076;18.250;2022-09-01T02:23:35;7.80;99.90
23507;DHT22;11930;53.076;18.250;2022-09-01T02:26:01;7.80;99.90
23507;DHT22;11930;53.076;18.250;2022-09-01T02:28:30;7.80;99.90
23507;DHT22;11930;53.076;18.250;2022-09-01T02:30:57;7.80;99.90
23507;DHT22;11930;53.076;18.250;2022-09-01T02:33:25;7.80;99.90
23507;DHT22;11930;53.076;18.250;2022-09-01T02:35:57;7.80;99.90
23507;DHT22;11930;53.076;18.250;2022-09-01T02:38:24;7.80;99.90
23507;DHT22;11930;53.076;18.250;2022-09-01T02:40:57;7.80;99.90
23507;DHT22;11930;53.076;18.250;2022-09-01T02:43:24;7.70;99.90
23507;DHT22;11930;53.076;18.250;2022-09-01T02:45:55;7.70;99.90
23507;DHT22;11930;53.076;18.250;2022-09-01T02:48:36;7.70;99.90
23507;DHT22;11930;53.076;18.250;2022-09-01T02:51:06;7.70;99.90
23507;DHT22;11930;53.076;18.250;2022-09-01T02:53:34;7.60;99.90
23507;DHT22;11930;53.076;18.250;2022-09-01T02:56:02;7.60;99.90
23507;DHT22;11930;53.076;18.250;2022-09-01T02:58:30;7.60;99.90
23507;DHT22;11930;53.076;18.250;2022-09-01T03:01:02;7.60;99.90
23507;DHT22;11930;53.076;18.250;2022-09-01T03:03:28;7.60;99.90
23507;DHT22;11930;53.076;18.250;2022-09-01T03:05:54;7.60;99.90
23507;DHT22;11930;53.076;18.250;2022-09-01T03:08:23;7.60;99.90
23507;DHT22;11930;53.076;18.250;2022-09-01T03:10:50;7.60;99.90
23507;DHT22;11930;53.076;18.250;2022-09-01T03:13:21;7.60;99.90
23507;DHT22;11930;53.076;18.250;2022-09-01T03:15:47;7.50;99.90
23507;DHT22;11930;53.076;18.250;2022-09-01T03:18:15;7.60;99.90
23507;DHT22;11930;53.076;18.250;2022-09-01T03:20:44;7.50;99.90
23507;DHT22;11930;53.076;18.250;2022-09-01T03:23:14;7.50;99.90
23507;DHT22;11930;53.076;18.250;2022-09-01T03:25:44;7.40;99.90
23507;DHT22;11930;53.076;18.250;2022-09-01T03:28:11;7.40;99.90
23507;DHT22;11930;53.076;18.250;2022-09-01T03:30:46;7.40;99.90
23507;DHT22;11930;53.076;18.250;2022-09-01T03:33:14;7.40;99.90
23507;DHT22;11930;53.076;18.250;2022-09-01T03:35:42;7.40;99.90
23507;DHT22;11930;53.076;18.250;2022-09-01T03:38:10;7.30;99.90
23507;DHT22;11930;53.076;18.250;2022-09-01T03:40:38;7.30;99.90
23507;DHT22;11930;53.076;18.250;2022-09-01T03:43:07;7.30;99.90
23507;DHT22;11930;53.076;18.250;2022-09-01T03:45:36;7.30;99.90
23507;DHT22;11930;53.076;18.250;2022-09-01T03:48:06;7.20;99.90
23507;DHT22;11930;53.076;18.250;2022-09-01T03:50:36;7.20;99.90
23507;DHT22;11930;53.076;18.250;2022-09-01T03:53:06;7.30;99.90
23507;DHT22;11930;53.076;18.250;2022-09-01T03:55:34;7.30;99.90
23507;DHT22;11930;53.076;18.250;2022-09-01T03:58:06;7.30;99.90
23507;DHT22;11930;53.076;18.250;2022-09-01T04:00:39;7.30;99.90
23507;DHT22;11930;53.076;18.250;2022-09-01T04:03:08;7.30;99.90
23507;DHT22;11930;53.076;18.250;2022-09-01T04:05:36;7.40;99.90
23507;DHT22;11930;53.076;18.250;2022-09-01T04:08:06;7.30;99.90
23507;DHT22;11930;53.076;18.250;2022-09-01T04:10:35;7.40;99.90
23507;DHT22;11930;53.076;18.250;2022-09-01T04:13:03;7.40;99.90
23507;DHT22;11930;53.076;18.250;2022-09-01T04:15:30;7.40;99.90
23507;DHT22;11930;53.076;18.250;2022-09-01T04:17:59;7.50;99.90
23507;DHT22;11930;53.076;18.250;2022-09-01T04:20:38;7.50;99.90
23507;DHT22;11930;53.076;18.250;2022-09-01T04:23:18;7.50;99.90
23507;DHT22;11930;53.076;18.250;2022-09-01T04:25:55;7.60;99.90
23507;DHT22;11930;53.076;18.250;2022-09-01T04:28:23;7.70;99.90
23507;DHT22;11930;53.076;18.250;2022-09-01T04:30:53;7.70;99.90
23507;DHT22;11930;53.076;18.250;2022-09-01T04:33:23;7.80;99.90
23507;DHT22;11930;53.076;18.250;2022-09-01T04:35:50;8.00;99.90
23507;DHT22;11930;53.076;18.250;2022-09-01T04:38:16;8.00;99.90
23507;DHT22;11930;53.076;18.250;2022-09-01T04:40:44;8.10;99.90
23507;DHT22;11930;53.076;18.250;2022-09-01T04:43:10;8.20;99.90
23507;DHT22;11930;53.076;18.250;2022-09-01T04:45:37;8.30;99.90
23507;DHT22;11930;53.076;18.250;2022-09-01T04:48:04;8.40;99.90
23507;DHT22;11930;53.076;18.250;2022-09-01T04:50:32;8.50;99.90
23507;DHT22;11930;53.076;18.250;2022-09-01T04:53:16;8.60;99.90
23507;DHT22;11930;53.076;18.250;2022-09-01T04:55:46;8.70;99.90
23507;DHT22;11930;53.076;18.250;2022-09-01T04:58:15;8.80;99.90
23507;DHT22;11930;53.076;18.250;2022-09-01T05:00:47;9.00;99.90
23507;DHT22;11930;53.076;18.250;2022-09-01T05:03:17;9.20;99.90
23507;DHT22;11930;53.076;18.250;2022-09-01T05:06:13;9.30;99.90
23507;DHT22;11930;53.076;18.250;2022-09-01T05:08:45;9.60;99.90
23507;DHT22;11930;53.076;18.250;2022-09-01T05:11:19;9.70;99.90
23507;DHT22;11930;53.076;18.250;2022-09-01T05:13:47;9.90;99.90
23507;DHT22;11930;53.076;18.250;2022-09-01T05:16:17;10.00;99.90
23507;DHT22;11930;53.076;18.250;2022-09-01T05:18:47;10.20;99.90
23507;DHT22;11930;53.076;18.250;2022-09-01T05:21:19;10.50;99.90
23507;DHT22;11930;53.076;18.250;2022-09-01T05:23:48;10.70;99.90
23507;DHT22;11930;53.076;18.250;2022-09-01T05:26:20;10.90;99.90
23507;DHT22;11930;53.076;18.250;2022-09-01T05:28:49;11.10;99.90
23507;DHT22;11930;53.076;18.250;2022-09-01T05:31:16;11.30;99.90
23507;DHT22;11930;53.076;18.250;2022-09-01T05:33:46;11.50;99.90
23507;DHT22;11930;53.076;18.250;2022-09-01T05:36:17;11.60;99.90
23507;DHT22;11930;53.076;18.250;2022-09-01T05:38:46;11.70;99.90
23507;DHT22;11930;53.076;18.250;2022-09-01T05:41:15;11.80;99.90
23507;DHT22;11930;53.076;18.250;2022-09-01T05:43:43;12.00;99.90
23507;DHT22;11930;53.076;18.250;2022-09-01T05:46:17;12.30;99.90
23507;DHT22;11930;53.076;18.250;2022-09-01T05:48:44;12.50;99.90
23507;DHT22;11930;53.076;18.250;2022-09-01T05:51:12;12.80;99.90
23507;DHT22;11930;53.076;18.250;2022-09-01T05:53:44;12.90;99.90
23507;DHT22;11930;53.076;18.250;2022-09-01T05:56:12;13.20;99.90
23507;DHT22;11930;53.076;18.250;2022-09-01T05:58:40;13.30;99.90
23507;DHT22;11930;53.076;18.250;2022-09-01T06:01:18;13.50;99.90
23507;DHT22;11930;53.076;18.250;2022-09-01T06:03:49;13.80;99.90
23507;DHT22;11930;53.076;18.250;2022-09-01T06:06:21;14.20;99.90
23507;DHT22;11930;53.076;18.250;2022-09-01T06:08:52;15.00;99.90
23507;DHT22;11930;53.076;18.250;2022-09-01T06:11:25;15.40;99.90
23507;DHT22;11930;53.076;18.250;2022-09-01T06:13:52;15.60;99.90
23507;DHT22;11930;53.076;18.250;2022-09-01T06:16:22;15.80;99.90
23507;DHT22;11930;53.076;18.250;2022-09-01T06:18:50;15.90;99.90
23507;DHT22;11930;53.076;18.250;2022-09-01T06:21:18;15.90;99.90
23507;DHT22;11930;53.076;18.250;2022-09-01T06:23:46;15.90;99.90
23507;DHT22;11930;53.076;18.250;2022-09-01T06:26:26;15.80;99.90
23507;DHT22;11930;53.076;18.250;2022-09-01T06:28:56;16.10;99.90
23507;DHT22;11930;53.076;18.250;2022-09-01T06:31:25;17.20;99.90
23507;DHT22;11930;53.076;18.250;2022-09-01T06:33:53;19.30;99.90
23507;DHT22;11930;53.076;18.250;2022-09-01T06:36:21;20.90;99.90
23507;DHT22;11930;53.076;18.250;2022-09-01T06:38:49;21.40;98.90
23507;DHT22;11930;53.076;18.250;2022-09-01T06:41:16;21.20;98.10
23507;DHT22;11930;53.076;18.250;2022-09-01T06:43:49;22.00;94.10
23507;DHT22;11930;53.076;18.250;2022-09-01T06:46:19;22.30;91.50
23507;DHT22;11930;53.076;18.250;2022-09-01T06:48:46;22.10;90.20
23507;DHT22;11930;53.076;18.250;2022-09-01T06:51:20;21.90;90.70
23507;DHT22;11930;53.076;18.250;2022-09-01T06:53:50;22.10;91.20
23507;DHT22;11930;53.076;18.250;2022-09-01T06:56:23;23.40;89.70
23507;DHT22;11930;53.076;18.250;2022-09-01T06:58:53;24.30;77.10
23507;DHT22;11930;53.076;18.250;2022-09-01T07:01:21;23.70;76.00
23507;DHT22;11930;53.076;18.250;2022-09-01T07:03:51;23.20;76.10
23507;DHT22;11930;53.076;18.250;2022-09-01T07:06:25;22.40;80.10
23507;DHT22;11930;53.076;18.250;2022-09-01T07:09:13;21.60;82.90
23507;DHT22;11930;53.076;18.250;2022-09-01T07:11:41;20.70;88.00
23507;DHT22;11930;53.076;18.250;2022-09-01T07:14:07;20.50;91.00
23507;DHT22;11930;53.076;18.250;2022-09-01T07:16:35;20.60;91.70
23507;DHT22;11930;53.076;18.250;2022-09-01T07:19:09;20.60;92.60
23507;DHT22;11930;53.076;18.250;2022-09-01T07:21:42;20.80;92.60
23507;DHT22;11930;53.076;18.250;2022-09-01T07:24:11;20.80;91.40
23507;DHT22;11930;53.076;18.250;2022-09-01T07:26:49;20.70;91.90
23507;DHT22;11930;53.076;18.250;2022-09-01T07:29:17;20.60;91.90
23507;DHT22;11930;53.076;18.250;2022-09-01T07:31:46;20.30;92.50
23507;DHT22;11930;53.076;18.250;2022-09-01T07:34:13;20.50;93.90
23507;DHT22;11930;53.076;18.250;2022-09-01T07:36:43;20.90;91.60
23507;DHT22;11930;53.076;18.250;2022-09-01T07:39:10;21.30;90.10
23507;DHT22;11930;53.076;18.250;2022-09-01T07:41:40;22.10;87.20
23507;DHT22;11930;53.076;18.250;2022-09-01T07:44:25;22.90;80.10
23507;DHT22;11930;53.076;18.250;2022-09-01T07:47:15;23.80;76.90
23507;DHT22;11930;53.076;18.250;2022-09-01T07:49:42;25.10;70.50
23507;DHT22;11930;53.076;18.250;2022-09-01T07:52:08;26.10;68.20
23507;DHT22;11930;53.076;18.250;2022-09-01T07:54:34;27.30;59.30
23507;DHT22;11930;53.076;18.250;2022-09-01T07:57:03;28.10;57.20
23507;DHT22;11930;53.076;18.250;2022-09-01T07:59:32;28.70;54.10
23507;DHT22;11930;53.076;18.250;2022-09-01T08:02:15;28.70;51.50
23507;DHT22;11930;53.076;18.250;2022-09-01T08:04:44;27.50;52.50
23507;DHT22;11930;53.076;18.250;2022-09-01T08:07:11;26.00;54.90
23507;DHT22;11930;53.076;18.250;2022-09-01T08:09:39;24.90;57.80
23507;DHT22;11930;53.076;18.250;2022-09-01T08:12:07;23.90;59.10
23507;DHT22;11930;53.076;18.250;2022-09-01T08:14:36;23.20;62.40
23507;DHT22;11930;53.076;18.250;2022-09-01T08:17:03;23.20;64.80
23507;DHT22;11930;53.076;18.250;2022-09-01T08:19:30;23.10;63.40
23507;DHT22;11930;53.076;18.250;2022-09-01T08:22:07;23.00;62.90
23507;DHT22;11930;53.076;18.250;2022-09-01T08:24:44;22.70;64.40
23507;DHT22;11930;53.076;18.250;2022-09-01T08:27:10;22.30;66.00
23507;DHT22;11930;53.076;18.250;2022-09-01T08:29:38;21.90;67.50
23507;DHT22;11930;53.076;18.250;2022-09-01T08:32:04;21.90;68.70
23507;DHT22;11930;53.076;18.250;2022-09-01T08:34:32;22.70;67.30
23507;DHT22;11930;53.076;18.250;2022-09-01T08:36:58;23.00;65.00
23507;DHT22;11930;53.076;18.250;2022-09-01T08:39:24;23.20;64.00
23507;DHT22;11930;53.076;18.250;2022-09-01T08:48:01;23.40;60.90
23507;DHT22;11930;53.076;18.250;2022-09-01T08:50:33;24.80;60.20
23507;DHT22;11930;53.076;18.250;2022-09-01T08:53:22;25.40;56.60
23507;DHT22;11930;53.076;18.250;2022-09-01T08:55:54;24.90;58.40
23507;DHT22;11930;53.076;18.250;2022-09-01T08:58:21;24.70;58.40
23507;DHT22;11930;53.076;18.250;2022-09-01T09:01:17;24.40;57.70
23507;DHT22;11930;53.076;18.250;2022-09-01T09:04:12;23.70;58.90
23507;DHT22;11930;53.076;18.250;2022-09-01T09:07:05;22.90;61.30
23507;DHT22;11930;53.076;18.250;2022-09-01T09:12:53;22.40;66.30
23507;DHT22;11930;53.076;18.250;2022-09-01T09:15:43;22.40;65.00
23507;DHT22;11930;53.076;18.250;2022-09-01T09:18:46;22.50;66.40
23507;DHT22;11930;53.076;18.250;2022-09-01T09:21:22;22.80;65.70
23507;DHT22;11930;53.076;18.250;2022-09-01T09:23:58;22.70;64.30
23507;DHT22;11930;53.076;18.250;2022-09-01T09:26:25;22.60;64.40
23507;DHT22;11930;53.076;18.250;2022-09-01T09:28:55;22.20;64.20
23507;DHT22;11930;53.076;18.250;2022-09-01T09:31:40;22.20;66.10
23507;DHT22;11930;53.076;18.250;2022-09-01T09:34:33;22.50;64.10
23507;DHT22;11930;53.076;18.250;2022-09-01T09:37:27;22.70;63.50
23507;DHT22;11930;53.076;18.250;2022-09-01T09:40:09;22.60;64.10
23507;DHT22;11930;53.076;18.250;2022-09-01T09:42:41;22.60;64.20
23507;DHT22;11930;53.076;18.250;2022-09-01T09:45:32;22.30;64.60
23507;DHT22;11930;53.076;18.250;2022-09-01T09:48:03;22.30;63.80
23507;DHT22;11930;53.076;18.250;2022-09-01T09:50:36;22.10;62.00
23507;DHT22;11930;53.076;18.250;2022-09-01T09:53:24;22.00;63.30
23507;DHT22;11930;53.076;18.250;2022-09-01T09:56:06;21.90;64.60
23507;DHT22;11930;53.076;18.250;2022-09-01T09:58:40;21.90;63.70
23507;DHT22;11930;53.076;18.250;2022-09-01T10:03:54;21.60;65.80
23507;DHT22;11930;53.076;18.250;2022-09-01T10:06:41;22.00;67.40
23507;DHT22;11930;53.076;18.250;2022-09-01T10:09:34;22.40;67.50
23507;DHT22;11930;53.076;18.250;2022-09-01T10:12:01;22.70;63.00
23507;DHT22;11930;53.076;18.250;2022-09-01T10:14:47;22.80;62.80
23507;DHT22;11930;53.076;18.250;2022-09-01T10:17:27;22.90;61.90
23507;DHT22;11930;53.076;18.250;2022-09-01T10:19:57;23.00;62.20
23507;DHT22;11930;53.076;18.250;2022-09-01T10:22:24;23.10;61.30
23507;DHT22;11930;53.076;18.250;2022-09-01T10:24:51;23.40;61.20
23507;DHT22;11930;53.076;18.250;2022-09-01T10:27:22;23.50;58.50
23507;DHT22;11930;53.076;18.250;2022-09-01T10:29:56;23.80;57.80
23507;DHT22;11930;53.076;18.250;2022-09-01T10:32:48;23.50;56.40
23507;DHT22;11930;53.076;18.250;2022-09-01T10:35:26;23.30;57.20
23507;DHT22;11930;53.076;18.250;2022-09-01T10:37:57;23.20;57.90
23507;DHT22;11930;53.076;18.250;2022-09-01T10:43:22;23.30;56.60
23507;DHT22;11930;53.076;18.250;2022-09-01T10:45:50;23.50;57.40
23507;DHT22;11930;53.076;18.250;2022-09-01T10:50:53;23.60;55.70
23507;DHT22;11930;53.076;18.250;2022-09-01T11:01:15;22.60;57.40
23507;DHT22;11930;53.076;18.250;2022-09-01T11:03:52;22.40;59.70
23507;DHT22;11930;53.076;18.250;2022-09-01T11:09:02;22.00;59.90
23507;DHT22;11930;53.076;18.250;2022-09-01T11:14:00;22.00;61.20
23507;DHT22;11930;53.076;18.250;2022-09-01T11:16:34;22.00;61.10
23507;DHT22;11930;53.076;18.250;2022-09-01T11:19:36;22.30;60.70
23507;DHT22;11930;53.076;18.250;2022-09-01T11:27:07;22.70;60.60
23507;DHT22;11930;53.076;18.250;2022-09-01T11:29:56;22.70;57.20
23507;DHT22;11930;53.076;18.250;2022-09-01T11:32:26;22.40;59.20
23507;DHT22;11930;53.076;18.250;2022-09-01T11:34:56;22.20;59.70
23507;DHT22;11930;53.076;18.250;2022-09-01T11:37:24;22.10;60.80
23507;DHT22;11930;53.076;18.250;2022-09-01T11:39:54;22.10;60.90
23507;DHT22;11930;53.076;18.250;2022-09-01T11:42:26;22.20;60.00
23507;DHT22;11930;53.076;18.250;2022-09-01T11:47:30;22.10;61.50
23507;DHT22;11930;53.076;18.250;2022-09-01T11:49:58;21.80;62.30
23507;DHT22;11930;53.076;18.250;2022-09-01T11:52:31;21.80;63.70
23507;DHT22;11930;53.076;18.250;2022-09-01T11:54:59;21.70;64.40
23507;DHT22;11930;53.076;18.250;2022-09-01T11:57:34;21.50;65.40
23507;DHT22;11930;53.076;18.250;2022-09-01T12:00:08;21.50;66.40
23507;DHT22;11930;53.076;18.250;2022-09-01T12:02:48;21.60;66.00
23507;DHT22;11930;53.076;18.250;2022-09-01T12:05:35;21.70;65.80
23507;DHT22;11930;53.076;18.250;2022-09-01T12:08:10;21.60;65.40
23507;DHT22;11930;53.076;18.250;2022-09-01T12:10:39;21.40;65.90
23507;DHT22;11930;53.076;18.250;2022-09-01T12:13:15;21.10;67.60
23507;DHT22;11930;53.076;18.250;2022-09-01T12:15:42;21.00;69.90
23507;DHT22;11930;53.076;18.250;2022-09-01T12:18:17;21.00;66.60
23507;DHT22;11930;53.076;18.250;2022-09-01T12:20:45;21.10;68.00
23507;DHT22;11930;53.076;18.250;2022-09-01T12:23:25;21.00;68.50
23507;DHT22;11930;53.076;18.250;2022-09-01T12:25:54;20.90;68.20
23507;DHT22;11930;53.076;18.250;2022-09-01T12:28:22;20.90;69.40
23507;DHT22;11930;53.076;18.250;2022-09-01T12:30:50;21.20;68.30
23507;DHT22;11930;53.076;18.250;2022-09-01T12:33:18;21.40;66.60
23507;DHT22;11930;53.076;18.250;2022-09-01T12:35:45;21.40;68.20
23507;DHT22;11930;53.076;18.250;2022-09-01T12:40:49;21.60;66.40
23507;DHT22;11930;53.076;18.250;2022-09-01T12:43:36;21.50;67.00
23507;DHT22;11930;53.076;18.250;2022-09-01T12:46:04;21.40;65.80
23507;DHT22;11930;53.076;18.250;2022-09-01T12:48:36;21.10;64.50
23507;DHT22;11930;53.076;18.250;2022-09-01T12:51:23;20.90;66.10
23507;DHT22;11930;53.076;18.250;2022-09-01T12:53:53;20.80;67.20
23507;DHT22;11930;53.076;18.250;2022-09-01T12:56:28;20.90;67.30
23507;DHT22;11930;53.076;18.250;2022-09-01T12:59:08;20.90;65.40
23507;DHT22;11930;53.076;18.250;2022-09-01T13:01:36;20.80;65.00
23507;DHT22;11930;53.076;18.250;2022-09-01T13:06:50;20.50;60.30
23507;DHT22;11930;53.076;18.250;2022-09-01T13:09:17;20.50;60.70
23507;DHT22;11930;53.076;18.250;2022-09-01T13:11:43;20.50;61.60
23507;DHT22;11930;53.076;18.250;2022-09-01T13:14:14;20.60;62.30
23507;DHT22;11930;53.076;18.250;2022-09-01T13:16:40;20.70;59.50
23507;DHT22;11930;53.076;18.250;2022-09-01T13:19:06;20.60;59.00
23507;DHT22;11930;53.076;18.250;2022-09-01T13:21:33;20.70;60.20
23507;DHT22;11930;53.076;18.250;2022-09-01T13:24:01;20.80;62.60
23507;DHT22;11930;53.076;18.250;2022-09-01T13:26:30;20.80;63.60
23507;DHT22;11930;53.076;18.250;2022-09-01T13:28:57;20.80;63.60
23507;DHT22;11930;53.076;18.250;2022-09-01T13:31:23;20.80;63.50
23507;DHT22;11930;53.076;18.250;2022-09-01T13:33:49;20.60;63.00
23507;DHT22;11930;53.076;18.250;2022-09-01T13:36:15;20.40;65.00
23507;DHT22;11930;53.076;18.250;2022-09-01T13:38:42;20.30;66.00
23507;DHT22;11930;53.076;18.250;2022-09-01T13:41:07;20.10;68.10
23507;DHT22;11930;53.076;18.250;2022-09-01T13:43:36;20.10;69.60
23507;DHT22;11930;53.076;18.250;2022-09-01T13:46:02;20.10;70.00
23507;DHT22;11930;53.076;18.250;2022-09-01T13:48:28;20.00;71.10
23507;DHT22;11930;53.076;18.250;2022-09-01T13:51:00;20.00;70.40
23507;DHT22;11930;53.076;18.250;2022-09-01T13:53:27;19.70;70.00
23507;DHT22;11930;53.076;18.250;2022-09-01T13:55:52;19.70;71.10
23507;DHT22;11930;53.076;18.250;2022-09-01T13:58:18;19.60;69.80
23507;DHT22;11930;53.076;18.250;2022-09-01T14:00:46;19.60;70.10
23507;DHT22;11930;53.076;18.250;2022-09-01T14:03:15;19.70;70.70
23507;DHT22;11930;53.076;18.250;2022-09-01T14:05:44;19.60;68.20
23507;DHT22;11930;53.076;18.250;2022-09-01T14:08:12;19.70;68.80
23507;DHT22;11930;53.076;18.250;2022-09-01T14:10:42;19.60;70.70
23507;DHT22;11930;53.076;18.250;2022-09-01T14:13:10;19.40;72.90
23507;DHT22;11930;53.076;18.250;2022-09-01T14:15:37;19.20;74.20
23507;DHT22;11930;53.076;18.250;2022-09-01T14:18:03;19.10;72.50
23507;DHT22;11930;53.076;18.250;2022-09-01T14:20:32;18.80;73.20
23507;DHT22;11930;53.076;18.250;2022-09-01T14:23:03;18.80;74.40
23507;DHT22;11930;53.076;18.250;2022-09-01T14:25:31;18.60;76.10
23507;DHT22;11930;53.076;18.250;2022-09-01T14:27:58;18.50;75.60
23507;DHT22;11930;53.076;18.250;2022-09-01T14:30:27;18.30;76.20
23507;DHT22;11930;53.076;18.250;2022-09-01T14:32:53;18.20;75.80
23507;DHT22;11930;53.076;18.250;2022-09-01T14:35:21;18.10;75.00
23507;DHT22;11930;53.076;18.250;2022-09-01T14:37:51;18.10;76.30
23507;DHT22;11930;53.076;18.250;2022-09-01T14:40:18;18.00;77.00
23507;DHT22;11930;53.076;18.250;2022-09-01T14:42:46;17.90;76.60
23507;DHT22;11930;53.076;18.250;2022-09-01T14:45:19;17.90;76.50
23507;DHT22;11930;53.076;18.250;2022-09-01T14:47:47;17.90;77.70
23507;DHT22;11930;53.076;18.250;2022-09-01T14:50:15;17.90;78.40
23507;DHT22;11930;53.076;18.250;2022-09-01T14:52:42;17.80;79.20
23507;DHT22;11930;53.076;18.250;2022-09-01T14:55:08;17.80;80.00
23507;DHT22;11930;53.076;18.250;2022-09-01T14:57:34;17.90;80.80
23507;DHT22;11930;53.076;18.250;2022-09-01T15:00:00;17.80;81.60
23507;DHT22;11930;53.076;18.250;2022-09-01T15:02:27;17.90;83.10
23507;DHT22;11930;53.076;18.250;2022-09-01T15:04:55;17.90;83.00
23507;DHT22;11930;53.076;18.250;2022-09-01T15:07:21;18.00;83.00
23507;DHT22;11930;53.076;18.250;2022-09-01T15:09:47;18.10;83.60
23507;DHT22;11930;53.076;18.250;2022-09-01T15:12:13;18.00;83.30
23507;DHT22;11930;53.076;18.250;2022-09-01T15:14:39;18.00;84.60
23507;DHT22;11930;53.076;18.250;2022-09-01T15:17:05;18.10;85.20
23507;DHT22;11930;53.076;18.250;2022-09-01T15:19:32;18.30;85.60
23507;DHT22;11930;53.076;18.250;2022-09-01T15:21:58;18.40;83.40
23507;DHT22;11930;53.076;18.250;2022-09-01T15:24:25;18.40;84.40
23507;DHT22;11930;53.076;18.250;2022-09-01T15:26:51;18.40;86.10
23507;DHT22;11930;53.076;18.250;2022-09-01T15:29:18;18.50;85.30
23507;DHT22;11930;53.076;18.250;2022-09-01T15:31:44;18.50;85.70
23507;DHT22;11930;53.076;18.250;2022-09-01T15:34:11;18.40;85.40
23507;DHT22;11930;53.076;18.250;2022-09-01T15:36:40;18.30;86.10
23507;DHT22;11930;53.076;18.250;2022-09-01T15:39:07;18.30;84.10
23507;DHT22;11930;53.076;18.250;2022-09-01T15:41:35;18.30;85.80
23507;DHT22;11930;53.076;18.250;2022-09-01T15:44:04;18.30;86.90
23507;DHT22;11930;53.076;18.250;2022-09-01T15:46:32;18.30;87.70
23507;DHT22;11930;53.076;18.250;2022-09-01T15:49:05;18.30;86.60
23507;DHT22;11930;53.076;18.250;2022-09-01T15:51:42;18.30;86.30
23507;DHT22;11930;53.076;18.250;2022-09-01T15:54:10;18.30;88.50
23507;DHT22;11930;53.076;18.250;2022-09-01T15:56:38;18.30;89.90
23507;DHT22;11930;53.076;18.250;2022-09-01T15:59:06;18.20;88.40
23507;DHT22;11930;53.076;18.250;2022-09-01T16:01:38;18.20;89.00
23507;DHT22;11930;53.076;18.250;2022-09-01T16:04:06;18.10;90.20
23507;DHT22;11930;53.076;18.250;2022-09-01T16:06:33;18.00;90.40
23507;DHT22;11930;53.076;18.250;2022-09-01T16:08:59;18.10;91.40
23507;DHT22;11930;53.076;18.250;2022-09-01T16:11:26;18.00;91.60
23507;DHT22;11930;53.076;18.250;2022-09-01T16:13:53;18.00;91.90
23507;DHT22;11930;53.076;18.250;2022-09-01T16:19:54;17.90;93.10
23507;DHT22;11930;53.076;18.250;2022-09-01T16:22:33;17.90;92.80
23507;DHT22;11930;53.076;18.250;2022-09-01T16:25:10;17.90;93.10
23507;DHT22;11930;53.076;18.250;2022-09-01T16:27:39;17.90;93.20
23507;DHT22;11930;53.076;18.250;2022-09-01T16:30:10;17.80;93.60
23507;DHT22;11930;53.076;18.250;2022-09-01T16:32:43;17.80;94.30
23507;DHT22;11930;53.076;18.250;2022-09-01T16:35:09;17.70;95.00